sensor_id;sensor_type;location;lat;lon;timestamp;temperature;humidity
54930;DHT22;40833;53.238;6.576;2023-05-28T00:02:09;12.40;99.90
54930;DHT22;40833;53.238;6.576;2023-05-28T00:04:35;12.40;99.90
54930;DHT22;40833;53.238;6.576;2023-05-28T00:07:01;12.40;99.90
54930;DHT22;40833;53.238;6.576;2023-05-28T00:09:27;12.40;99.90
54930;DHT22;40833;53.238;6.576;2023-05-28T00:11:53;12.40;99.90
54930;DHT22;40833;53.238;6.576;2023-05-28T00:14:19;12.30;99.90
54930;DHT22;40833;53.238;6.576;2023-05-28T00:16:45;12.30;99.90
54930;DHT22;40833;53.238;6.576;2023-05-28T00:19:12;12.20;99.90
54930;DHT22;40833;53.238;6.576;2023-05-28T00:21:37;12.20;99.90
54930;DHT22;40833;53.238;6.576;2023-05-28T00:24:03;12.20;99.90
54930;DHT22;40833;53.238;6.576;2023-05-28T00:26:29;12.20;99.90
54930;DHT22;40833;53.238;6.576;2023-05-28T00:28:55;12.30;99.90
54930;DHT22;40833;53.238;6.576;2023-05-28T00:31:21;12.20;99.90
54930;DHT22;40833;53.238;6.576;2023-05-28T00:33:47;12.20;99.90
54930;DHT22;40833;53.238;6.576;2023-05-28T00:36:13;12.20;99.90
54930;DHT22;40833;53.238;6.576;2023-05-28T00:38:39;12.20;99.90
54930;DHT22;40833;53.238;6.576;2023-05-28T00:41:04;12.30;99.90
54930;DHT22;40833;53.238;6.576;2023-05-28T00:43:30;12.20;99.90
54930;DHT22;40833;53.238;6.576;2023-05-28T00:45:59;12.20;99.90
54930;DHT22;40833;53.238;6.576;2023-05-28T00:48:25;12.20;99.90
54930;DHT22;40833;53.238;6.576;2023-05-28T00:50:51;12.20;99.90
54930;DHT22;40833;53.238;6.576;2023-05-28T00:53:17;12.20;99.90
54930;DHT22;40833;53.238;6.576;2023-05-28T00:55:43;12.20;99.90
54930;DHT22;40833;53.238;6.576;2023-05-28T00:58:10;12.10;99.90
54930;DHT22;40833;53.238;6.576;2023-05-28T01:00:36;12.10;99.90
54930;DHT22;40833;53.238;6.576;2023-05-28T01:03:03;12.20;99.90
54930;DHT22;40833;53.238;6.576;2023-05-28T01:05:30;12.00;99.90
54930;DHT22;40833;53.238;6.576;2023-05-28T01:08:03;12.00;99.90
54930;DHT22;40833;53.238;6.576;2023-05-28T01:10:29;12.00;99.90
54930;DHT22;40833;53.238;6.576;2023-05-28T01:12:56;11.90;99.90
54930;DHT22;40833;53.238;6.576;2023-05-28T01:15:24;11.90;99.90
54930;DHT22;40833;53.238;6.576;2023-05-28T01:17:55;11.80;99.90
54930;DHT22;40833;53.238;6.576;2023-05-28T01:20:23;11.80;99.90
54930;DHT22;40833;53.238;6.576;2023-05-28T01:22:54;11.80;99.90
54930;DHT22;40833;53.238;6.576;2023-05-28T01:25:21;11.70;99.90
54930;DHT22;40833;53.238;6.576;2023-05-28T01:27:47;11.70;99.90
54930;DHT22;40833;53.238;6.576;2023-05-28T01:30:13;11.70;99.90
54930;DHT22;40833;53.238;6.576;2023-05-28T01:32:39;11.70;99.90
54930;DHT22;40833;53.238;6.576;2023-05-28T01:35:06;11.70;99.90
54930;DHT22;40833;53.238;6.576;2023-05-28T01:37:35;11.70;99.90
54930;DHT22;40833;53.238;6.576;2023-05-28T01:40:02;11.60;99.90
54930;DHT22;40833;53.238;6.576;2023-05-28T01:42:29;11.60;99.90
54930;DHT22;40833;53.238;6.576;2023-05-28T01:44:56;11.60;99.90
54930;DHT22;40833;53.238;6.576;2023-05-28T01:47:23;11.50;99.90
54930;DHT22;40833;53.238;6.576;2023-05-28T01:49:49;11.50;99.90
54930;DHT22;40833;53.238;6.576;2023-05-28T01:52:16;11.50;99.90
54930;DHT22;40833;53.238;6.576;2023-05-28T01:54:42;11.50;99.90
54930;DHT22;40833;53.238;6.576;2023-05-28T01:57:07;11.50;99.90
54930;DHT22;40833;53.238;6.576;2023-05-28T01:59:33;11.50;99.90
54930;DHT22;40833;53.238;6.576;2023-05-28T02:01:59;11.50;99.90
54930;DHT22;40833;53.238;6.576;2023-05-28T02:04:25;11.50;99.90
54930;DHT22;40833;53.238;6.576;2023-05-28T02:06:51;11.50;99.90
54930;DHT22;40833;53.238;6.576;2023-05-28T02:09:17;11.50;99.90
54930;DHT22;40833;53.238;6.576;2023-05-28T02:11:43;11.50;99.90
54930;DHT22;40833;53.238;6.576;2023-05-28T02:14:08;11.40;99.90
54930;DHT22;40833;53.238;6.576;2023-05-28T02:16:45;11.40;99.90
54930;DHT22;40833;53.238;6.576;2023-05-28T02:19:13;11.40;99.90
54930;DHT22;40833;53.238;6.576;2023-05-28T02:21:39;11.40;99.90
54930;DHT22;40833;53.238;6.576;2023-05-28T02:24:05;11.40;99.90
54930;DHT22;40833;53.238;6.576;2023-05-28T02:26:31;11.40;99.90
54930;DHT22;40833;53.238;6.576;2023-05-28T02:28:57;11.30;99.90
54930;DHT22;40833;53.238;6.576;2023-05-28T02:31:22;11.30;99.90
54930;DHT22;40833;53.238;6.576;2023-05-28T02:33:48;11.30;99.90
54930;DHT22;40833;53.238;6.576;2023-05-28T02:36:14;11.20;99.90
54930;DHT22;40833;53.238;6.576;2023-05-28T02:38:41;11.20;99.90
54930;DHT22;40833;53.238;6.576;2023-05-28T02:41:07;11.20;99.90
54930;DHT22;40833;53.238;6.576;2023-05-28T02:43:33;11.20;99.90
54930;DHT22;40833;53.238;6.576;2023-05-28T02:45:58;11.10;99.90
54930;DHT22;40833;53.238;6.576;2023-05-28T02:48:25;11.10;99.90
54930;DHT22;40833;53.238;6.576;2023-05-28T02:50:51;11.10;99.90
54930;DHT22;40833;53.238;6.576;2023-05-28T02:53:21;11.10;99.90
54930;DHT22;40833;53.238;6.576;2023-05-28T02:55:47;11.00;99.90
54930;DHT22;40833;53.238;6.576;2023-05-28T02:58:13;11.00;99.90
54930;DHT22;40833;53.238;6.576;2023-05-28T03:00:40;11.00;99.90
54930;DHT22;40833;53.238;6.576;2023-05-28T03:03:06;11.20;99.90
54930;DHT22;40833;53.238;6.576;2023-05-28T03:05:31;11.00;99.90
54930;DHT22;40833;53.238;6.576;2023-05-28T03:08:00;10.90;99.90
54930;DHT22;40833;53.238;6.576;2023-05-28T03:10:26;10.90;99.90
54930;DHT22;40833;53.238;6.576;2023-05-28T03:12:52;11.10;99.90
54930;DHT22;40833;53.238;6.576;2023-05-28T03:15:18;11.00;99.90
54930;DHT22;40833;53.238;6.576;2023-05-28T03:17:44;10.80;99.90
54930;DHT22;40833;53.238;6.576;2023-05-28T03:20:10;10.70;99.90
54930;DHT22;40833;53.238;6.576;2023-05-28T03:22:37;10.70;99.90
54930;DHT22;40833;53.238;6.576;2023-05-28T03:25:04;10.70;99.90
54930;DHT22;40833;53.238;6.576;2023-05-28T03:27:31;10.60;99.90
54930;DHT22;40833;53.238;6.576;2023-05-28T03:29:57;10.60;99.90
54930;DHT22;40833;53.238;6.576;2023-05-28T03:32:23;10.60;99.90
54930;DHT22;40833;53.238;6.576;2023-05-28T03:34:49;10.60;99.90
54930;DHT22;40833;53.238;6.576;2023-05-28T03:37:15;10.60;99.90
54930;DHT22;40833;53.238;6.576;2023-05-28T03:39:41;10.60;99.90
54930;DHT22;40833;53.238;6.576;2023-05-28T03:42:07;10.60;99.90
54930;DHT22;40833;53.238;6.576;2023-05-28T03:44:33;10.60;99.90
54930;DHT22;40833;53.238;6.576;2023-05-28T03:47:00;10.60;99.90
54930;DHT22;40833;53.238;6.576;2023-05-28T03:49:26;10.60;99.90
54930;DHT22;40833;53.238;6.576;2023-05-28T03:51:52;10.60;99.90
54930;DHT22;40833;53.238;6.576;2023-05-28T03:54:17;10.60;99.90
54930;DHT22;40833;53.238;6.576;2023-05-28T03:56:43;10.60;99.90
54930;DHT22;40833;53.238;6.576;2023-05-28T03:59:09;10.50;99.90
54930;DHT22;40833;53.238;6.576;2023-05-28T04:01:35;10.50;99.90
54930;DHT22;40833;53.238;6.576;2023-05-28T04:04:01;10.50;99.90
54930;DHT22;40833;53.238;6.576;2023-05-28T04:06:27;10.50;99.90
54930;DHT22;40833;53.238;6.576;2023-05-28T04:08:53;10.50;99.90
54930;DHT22;40833;53.238;6.576;2023-05-28T04:11:18;10.50;99.90
54930;DHT22;40833;53.238;6.576;2023-05-28T04:13:46;10.50;99.90
54930;DHT22;40833;53.238;6.576;2023-05-28T04:16:13;10.60;99.90
54930;DHT22;40833;53.238;6.576;2023-05-28T04:18:39;10.60;99.90
54930;DHT22;40833;53.238;6.576;2023-05-28T04:21:05;10.60;99.90
54930;DHT22;40833;53.238;6.576;2023-05-28T04:23:32;10.60;99.90
54930;DHT22;40833;53.238;6.576;2023-05-28T04:25:58;10.60;99.90
54930;DHT22;40833;53.238;6.576;2023-05-28T04:28:24;10.70;99.90
54930;DHT22;40833;53.238;6.576;2023-05-28T04:30:54;10.70;99.90
54930;DHT22;40833;53.238;6.576;2023-05-28T04:33:20;10.70;99.90
54930;DHT22;40833;53.238;6.576;2023-05-28T04:35:47;10.80;99.90
54930;DHT22;40833;53.238;6.576;2023-05-28T04:38:12;10.80;99.90
54930;DHT22;40833;53.238;6.576;2023-05-28T04:40:38;10.90;99.90
54930;DHT22;40833;53.238;6.576;2023-05-28T04:43:05;10.90;99.90
54930;DHT22;40833;53.238;6.576;2023-05-28T04:45:32;10.90;99.90
54930;DHT22;40833;53.238;6.576;2023-05-28T04:47:57;11.00;99.90
54930;DHT22;40833;53.238;6.576;2023-05-28T04:50:24;11.00;99.90
54930;DHT22;40833;53.238;6.576;2023-05-28T04:52:50;11.00;99.90
54930;DHT22;40833;53.238;6.576;2023-05-28T04:55:15;11.10;99.90
54930;DHT22;40833;53.238;6.576;2023-05-28T04:57:42;11.10;99.90
54930;DHT22;40833;53.238;6.576;2023-05-28T05:00:08;11.00;99.90
54930;DHT22;40833;53.238;6.576;2023-05-28T05:02:40;11.00;99.90
54930;DHT22;40833;53.238;6.576;2023-05-28T05:05:07;10.90;99.90
54930;DHT22;40833;53.238;6.576;2023-05-28T05:07:37;10.90;99.90
54930;DHT22;40833;53.238;6.576;2023-05-28T05:10:08;10.90;99.90
54930;DHT22;40833;53.238;6.576;2023-05-28T05:12:34;10.90;99.90
54930;DHT22;40833;53.238;6.576;2023-05-28T05:15:00;10.90;99.90
54930;DHT22;40833;53.238;6.576;2023-05-28T05:17:25;10.90;99.90
54930;DHT22;40833;53.238;6.576;2023-05-28T05:19:51;10.90;99.90
54930;DHT22;40833;53.238;6.576;2023-05-28T05:22:18;11.00;99.90
54930;DHT22;40833;53.238;6.576;2023-05-28T05:24:46;11.00;99.90
54930;DHT22;40833;53.238;6.576;2023-05-28T05:27:11;11.10;99.90
54930;DHT22;40833;53.238;6.576;2023-05-28T05:29:37;11.20;99.90
54930;DHT22;40833;53.238;6.576;2023-05-28T05:32:03;11.20;99.90
54930;DHT22;40833;53.238;6.576;2023-05-28T05:34:29;11.30;99.90
54930;DHT22;40833;53.238;6.576;2023-05-28T05:36:54;11.40;99.90
54930;DHT22;40833;53.238;6.576;2023-05-28T05:39:20;11.50;99.90
54930;DHT22;40833;53.238;6.576;2023-05-28T05:41:46;11.60;99.90
54930;DHT22;40833;53.238;6.576;2023-05-28T05:44:12;11.70;99.90
54930;DHT22;40833;53.238;6.576;2023-05-28T05:46:38;11.80;99.90
54930;DHT22;40833;53.238;6.576;2023-05-28T05:49:03;11.90;99.90
54930;DHT22;40833;53.238;6.576;2023-05-28T05:51:29;12.00;99.90
54930;DHT22;40833;53.238;6.576;2023-05-28T05:53:57;12.10;99.90
54930;DHT22;40833;53.238;6.576;2023-05-28T05:56:23;12.20;99.90
54930;DHT22;40833;53.238;6.576;2023-05-28T05:58:51;12.30;99.90
54930;DHT22;40833;53.238;6.576;2023-05-28T06:01:17;12.40;99.90
54930;DHT22;40833;53.238;6.576;2023-05-28T06:03:43;12.50;99.90
54930;DHT22;40833;53.238;6.576;2023-05-28T06:06:09;12.60;99.90
54930;DHT22;40833;53.238;6.576;2023-05-28T06:08:35;12.70;99.90
54930;DHT22;40833;53.238;6.576;2023-05-28T06:11:01;12.70;99.90
54930;DHT22;40833;53.238;6.576;2023-05-28T06:13:27;12.80;99.90
54930;DHT22;40833;53.238;6.576;2023-05-28T06:15:54;12.80;99.90
54930;DHT22;40833;53.238;6.576;2023-05-28T06:18:19;12.90;99.90
54930;DHT22;40833;53.238;6.576;2023-05-28T06:20:47;13.00;99.90
54930;DHT22;40833;53.238;6.576;2023-05-28T06:23:14;13.00;99.90
54930;DHT22;40833;53.238;6.576;2023-05-28T06:25:40;13.10;99.90
54930;DHT22;40833;53.238;6.576;2023-05-28T06:28:06;13.20;99.90
54930;DHT22;40833;53.238;6.576;2023-05-28T06:30:31;13.20;99.90
54930;DHT22;40833;53.238;6.576;2023-05-28T06:32:57;13.30;99.90
54930;DHT22;40833;53.238;6.576;2023-05-28T06:35:23;13.30;99.90
54930;DHT22;40833;53.238;6.576;2023-05-28T06:37:48;13.40;99.90
54930;DHT22;40833;53.238;6.576;2023-05-28T06:40:14;13.40;99.90
54930;DHT22;40833;53.238;6.576;2023-05-28T06:42:40;13.50;99.90
54930;DHT22;40833;53.238;6.576;2023-05-28T06:45:06;13.50;99.90
54930;DHT22;40833;53.238;6.576;2023-05-28T06:47:33;13.50;99.90
54930;DHT22;40833;53.238;6.576;2023-05-28T06:49:59;13.60;99.90
54930;DHT22;40833;53.238;6.576;2023-05-28T06:52:24;13.60;99.90
54930;DHT22;40833;53.238;6.576;2023-05-28T06:54:51;13.60;99.90
54930;DHT22;40833;53.238;6.576;2023-05-28T06:57:16;13.70;99.90
54930;DHT22;40833;53.238;6.576;2023-05-28T06:59:42;13.70;99.90
54930;DHT22;40833;53.238;6.576;2023-05-28T07:02:08;13.80;99.90
54930;DHT22;40833;53.238;6.576;2023-05-28T07:04:33;13.90;99.90
54930;DHT22;40833;53.238;6.576;2023-05-28T07:06:59;13.90;99.90
54930;DHT22;40833;53.238;6.576;2023-05-28T07:09:25;14.10;99.90
54930;DHT22;40833;53.238;6.576;2023-05-28T07:11:51;14.10;99.90
54930;DHT22;40833;53.238;6.576;2023-05-28T07:14:17;14.20;99.90
54930;DHT22;40833;53.238;6.576;2023-05-28T07:16:42;14.20;99.90
54930;DHT22;40833;53.238;6.576;2023-05-28T07:19:08;14.30;99.90
54930;DHT22;40833;53.238;6.576;2023-05-28T07:21:33;14.30;99.90
54930;DHT22;40833;53.238;6.576;2023-05-28T07:24:01;14.40;99.90
54930;DHT22;40833;53.238;6.576;2023-05-28T07:26:26;14.40;99.90
54930;DHT22;40833;53.238;6.576;2023-05-28T07:28:52;14.50;99.90
54930;DHT22;40833;53.238;6.576;2023-05-28T07:31:18;14.50;99.90
54930;DHT22;40833;53.238;6.576;2023-05-28T07:33:43;14.50;99.90
54930;DHT22;40833;53.238;6.576;2023-05-28T07:36:09;14.60;99.90
54930;DHT22;40833;53.238;6.576;2023-05-28T07:38:35;14.70;99.90
54930;DHT22;40833;53.238;6.576;2023-05-28T07:41:01;14.70;99.90
54930;DHT22;40833;53.238;6.576;2023-05-28T07:43:27;14.80;99.90
54930;DHT22;40833;53.238;6.576;2023-05-28T07:45:52;14.90;99.90
54930;DHT22;40833;53.238;6.576;2023-05-28T07:48:18;14.90;99.90
54930;DHT22;40833;53.238;6.576;2023-05-28T07:50:43;15.00;99.90
54930;DHT22;40833;53.238;6.576;2023-05-28T07:53:09;15.10;99.90
54930;DHT22;40833;53.238;6.576;2023-05-28T07:55:36;15.20;99.90
54930;DHT22;40833;53.238;6.576;2023-05-28T07:58:01;16.80;99.90
54930;DHT22;40833;53.238;6.576;2023-05-28T08:00:28;15.40;99.90
54930;DHT22;40833;53.238;6.576;2023-05-28T08:02:53;15.40;99.90
54930;DHT22;40833;53.238;6.576;2023-05-28T08:05:19;15.50;99.90
54930;DHT22;40833;53.238;6.576;2023-05-28T08:07:45;15.60;99.90
54930;DHT22;40833;53.238;6.576;2023-05-28T08:10:11;15.60;99.90
54930;DHT22;40833;53.238;6.576;2023-05-28T08:12:37;15.70;99.90
54930;DHT22;40833;53.238;6.576;2023-05-28T08:15:03;15.80;99.90
54930;DHT22;40833;53.238;6.576;2023-05-28T08:17:30;15.90;99.90
54930;DHT22;40833;53.238;6.576;2023-05-28T08:19:59;16.00;99.90
54930;DHT22;40833;53.238;6.576;2023-05-28T08:22:25;16.00;99.90
54930;DHT22;40833;53.238;6.576;2023-05-28T08:24:51;16.10;99.90
54930;DHT22;40833;53.238;6.576;2023-05-28T08:27:16;16.10;99.90
54930;DHT22;40833;53.238;6.576;2023-05-28T08:29:42;16.10;99.90
54930;DHT22;40833;53.238;6.576;2023-05-28T08:32:08;16.10;99.90
54930;DHT22;40833;53.238;6.576;2023-05-28T08:34:33;16.20;99.90
54930;DHT22;40833;53.238;6.576;2023-05-28T08:37:03;16.20;99.90
54930;DHT22;40833;53.238;6.576;2023-05-28T08:39:28;16.30;99.90
54930;DHT22;40833;53.238;6.576;2023-05-28T08:41:54;16.30;99.90
54930;DHT22;40833;53.238;6.576;2023-05-28T08:44:20;16.40;99.90
54930;DHT22;40833;53.238;6.576;2023-05-28T08:46:47;16.50;99.90
54930;DHT22;40833;53.238;6.576;2023-05-28T08:49:14;16.50;99.90
54930;DHT22;40833;53.238;6.576;2023-05-28T08:51:42;16.50;99.90
54930;DHT22;40833;53.238;6.576;2023-05-28T08:54:09;16.50;99.90
54930;DHT22;40833;53.238;6.576;2023-05-28T08:56:35;16.50;99.90
54930;DHT22;40833;53.238;6.576;2023-05-28T08:59:01;16.50;99.90
54930;DHT22;40833;53.238;6.576;2023-05-28T09:01:29;16.50;99.90
54930;DHT22;40833;53.238;6.576;2023-05-28T09:03:54;16.60;99.90
54930;DHT22;40833;53.238;6.576;2023-05-28T09:06:20;16.60;99.90
54930;DHT22;40833;53.238;6.576;2023-05-28T09:08:49;16.80;99.90
54930;DHT22;40833;53.238;6.576;2023-05-28T09:11:15;16.80;99.90
54930;DHT22;40833;53.238;6.576;2023-05-28T09:13:45;16.90;99.90
54930;DHT22;40833;53.238;6.576;2023-05-28T09:16:12;17.00;99.90
54930;DHT22;40833;53.238;6.576;2023-05-28T09:18:48;17.00;99.90
54930;DHT22;40833;53.238;6.576;2023-05-28T09:21:14;17.10;99.90
54930;DHT22;40833;53.238;6.576;2023-05-28T09:23:40;17.10;99.90
54930;DHT22;40833;53.238;6.576;2023-05-28T09:26:10;17.10;99.90
54930;DHT22;40833;53.238;6.576;2023-05-28T09:28:35;17.20;99.90
54930;DHT22;40833;53.238;6.576;2023-05-28T09:31:05;17.20;99.90
54930;DHT22;40833;53.238;6.576;2023-05-28T09:33:40;17.30;99.90
54930;DHT22;40833;53.238;6.576;2023-05-28T09:36:07;17.40;99.90
54930;DHT22;40833;53.238;6.576;2023-05-28T09:38:40;17.40;99.90
54930;DHT22;40833;53.238;6.576;2023-05-28T09:41:20;17.50;99.90
54930;DHT22;40833;53.238;6.576;2023-05-28T09:43:58;17.60;99.90
54930;DHT22;40833;53.238;6.576;2023-05-28T09:46:34;17.60;99.90
54930;DHT22;40833;53.238;6.576;2023-05-28T09:49:02;17.60;99.90
54930;DHT22;40833;53.238;6.576;2023-05-28T09:51:31;17.70;99.90
54930;DHT22;40833;53.238;6.576;2023-05-28T09:54:00;17.80;99.90
54930;DHT22;40833;53.238;6.576;2023-05-28T09:56:33;17.90;99.90
54930;DHT22;40833;53.238;6.576;2023-05-28T09:59:00;18.00;99.90
54930;DHT22;40833;53.238;6.576;2023-05-28T10:01:32;18.10;99.90
54930;DHT22;40833;53.238;6.576;2023-05-28T10:04:05;18.20;99.90
54930;DHT22;40833;53.238;6.576;2023-05-28T10:06:33;18.30;99.90
54930;DHT22;40833;53.238;6.576;2023-05-28T10:09:01;18.20;99.90
54930;DHT22;40833;53.238;6.576;2023-05-28T10:11:34;18.20;99.90
54930;DHT22;40833;53.238;6.576;2023-05-28T10:14:02;18.30;99.90
54930;DHT22;40833;53.238;6.576;2023-05-28T10:16:29;18.50;99.90
54930;DHT22;40833;53.238;6.576;2023-05-28T10:18:56;18.50;99.90
54930;DHT22;40833;53.238;6.576;2023-05-28T10:21:23;18.60;99.90
54930;DHT22;40833;53.238;6.576;2023-05-28T10:23:49;18.80;99.70
54930;DHT22;40833;53.238;6.576;2023-05-28T10:26:16;18.80;99.70
54930;DHT22;40833;53.238;6.576;2023-05-28T10:28:42;18.90;99.10
54930;DHT22;40833;53.238;6.576;2023-05-28T10:31:09;19.00;98.90
54930;DHT22;40833;53.238;6.576;2023-05-28T10:33:43;19.00;98.20
54930;DHT22;40833;53.238;6.576;2023-05-28T10:36:13;19.00;96.60
54930;DHT22;40833;53.238;6.576;2023-05-28T10:38:57;19.00;96.50
54930;DHT22;40833;53.238;6.576;2023-05-28T10:41:24;19.10;96.10
54930;DHT22;40833;53.238;6.576;2023-05-28T10:43:51;19.20;95.80
54930;DHT22;40833;53.238;6.576;2023-05-28T10:49:13;19.40;96.80
54930;DHT22;40833;53.238;6.576;2023-05-28T10:59:58;19.90;97.60
54930;DHT22;40833;53.238;6.576;2023-05-28T11:02:28;20.00;97.70
54930;DHT22;40833;53.238;6.576;2023-05-28T11:04:59;20.10;98.10
54930;DHT22;40833;53.238;6.576;2023-05-28T11:07:37;20.10;98.20
54930;DHT22;40833;53.238;6.576;2023-05-28T11:10:06;20.20;98.30
54930;DHT22;40833;53.238;6.576;2023-05-28T11:12:35;20.30;98.20
54930;DHT22;40833;53.238;6.576;2023-05-28T11:15:02;20.20;98.20
54930;DHT22;40833;53.238;6.576;2023-05-28T11:17:27;20.10;98.60
54930;DHT22;40833;53.238;6.576;2023-05-28T11:19:53;20.10;98.40
54930;DHT22;40833;53.238;6.576;2023-05-28T11:22:20;20.10;99.00
54930;DHT22;40833;53.238;6.576;2023-05-28T11:24:55;20.20;99.20
54930;DHT22;40833;53.238;6.576;2023-05-28T11:27:23;20.10;99.90
54930;DHT22;40833;53.238;6.576;2023-05-28T11:29:50;20.20;99.90
54930;DHT22;40833;53.238;6.576;2023-05-28T11:32:18;20.10;99.90
54930;DHT22;40833;53.238;6.576;2023-05-28T11:34:44;20.10;99.90
54930;DHT22;40833;53.238;6.576;2023-05-28T11:37:10;20.10;99.90
54930;DHT22;40833;53.238;6.576;2023-05-28T11:39:36;20.10;99.90
54930;DHT22;40833;53.238;6.576;2023-05-28T11:42:02;20.10;99.90
54930;DHT22;40833;53.238;6.576;2023-05-28T11:44:28;20.10;99.90
54930;DHT22;40833;53.238;6.576;2023-05-28T11:46:54;20.10;99.90
54930;DHT22;40833;53.238;6.576;2023-05-28T11:49:21;20.10;99.90
54930;DHT22;40833;53.238;6.576;2023-05-28T11:51:47;20.30;99.90
54930;DHT22;40833;53.238;6.576;2023-05-28T11:54:15;20.40;99.90
54930;DHT22;40833;53.238;6.576;2023-05-28T11:56:40;20.40;99.90
54930;DHT22;40833;53.238;6.576;2023-05-28T11:59:06;20.30;99.90
54930;DHT22;40833;53.238;6.576;2023-05-28T12:01:35;20.20;99.90
54930;DHT22;40833;53.238;6.576;2023-05-28T12:04:05;20.20;99.90
54930;DHT22;40833;53.238;6.576;2023-05-28T12:06:34;20.10;99.90
54930;DHT22;40833;53.238;6.576;2023-05-28T12:09:08;20.10;99.90
54930;DHT22;40833;53.238;6.576;2023-05-28T12:11:34;20.20;99.90
54930;DHT22;40833;53.238;6.576;2023-05-28T12:14:13;20.30;99.90
54930;DHT22;40833;53.238;6.576;2023-05-28T12:16:46;20.40;99.90
54930;DHT22;40833;53.238;6.576;2023-05-28T12:19:16;20.50;99.90
54930;DHT22;40833;53.238;6.576;2023-05-28T12:21:44;20.60;99.90
54930;DHT22;40833;53.238;6.576;2023-05-28T12:24:13;20.60;99.90
54930;DHT22;40833;53.238;6.576;2023-05-28T12:26:43;20.70;99.90
54930;DHT22;40833;53.238;6.576;2023-05-28T12:29:09;20.80;99.90
54930;DHT22;40833;53.238;6.576;2023-05-28T12:31:36;20.80;99.90
54930;DHT22;40833;53.238;6.576;2023-05-28T12:34:01;20.80;99.90
54930;DHT22;40833;53.238;6.576;2023-05-28T12:36:27;20.80;99.90
54930;DHT22;40833;53.238;6.576;2023-05-28T12:38:53;20.90;99.90
54930;DHT22;40833;53.238;6.576;2023-05-28T12:41:19;20.90;99.90
54930;DHT22;40833;53.238;6.576;2023-05-28T12:43:45;20.80;99.90
54930;DHT22;40833;53.238;6.576;2023-05-28T12:46:11;20.70;99.90
54930;DHT22;40833;53.238;6.576;2023-05-28T12:48:36;20.70;99.90
54930;DHT22;40833;53.238;6.576;2023-05-28T12:51:02;20.80;99.90
54930;DHT22;40833;53.238;6.576;2023-05-28T12:53:31;20.70;99.90
54930;DHT22;40833;53.238;6.576;2023-05-28T12:55:57;20.70;99.90
54930;DHT22;40833;53.238;6.576;2023-05-28T12:58:22;20.60;99.90
54930;DHT22;40833;53.238;6.576;2023-05-28T13:00:49;20.70;99.90
54930;DHT22;40833;53.238;6.576;2023-05-28T13:03:15;20.80;99.90
54930;DHT22;40833;53.238;6.576;2023-05-28T13:05:41;20.80;99.90
54930;DHT22;40833;53.238;6.576;2023-05-28T13:08:06;21.00;99.90
54930;DHT22;40833;53.238;6.576;2023-05-28T13:10:32;21.10;99.90
54930;DHT22;40833;53.238;6.576;2023-05-28T13:12:58;21.30;99.90
54930;DHT22;40833;53.238;6.576;2023-05-28T13:15:23;21.40;99.90
54930;DHT22;40833;53.238;6.576;2023-05-28T13:17:49;21.60;99.90
54930;DHT22;40833;53.238;6.576;2023-05-28T13:20:15;21.80;99.90
54930;DHT22;40833;53.238;6.576;2023-05-28T13:22:42;21.90;99.90
54930;DHT22;40833;53.238;6.576;2023-05-28T13:25:08;21.90;99.90
54930;DHT22;40833;53.238;6.576;2023-05-28T13:27:34;22.00;99.90
54930;DHT22;40833;53.238;6.576;2023-05-28T13:30:00;21.90;99.90
54930;DHT22;40833;53.238;6.576;2023-05-28T13:32:27;21.90;99.90
54930;DHT22;40833;53.238;6.576;2023-05-28T13:34:53;21.90;99.90
54930;DHT22;40833;53.238;6.576;2023-05-28T13:37:20;21.80;99.90
54930;DHT22;40833;53.238;6.576;2023-05-28T13:39:46;21.80;99.90
54930;DHT22;40833;53.238;6.576;2023-05-28T13:42:12;21.80;99.60
54930;DHT22;40833;53.238;6.576;2023-05-28T13:44:38;21.80;99.50
54930;DHT22;40833;53.238;6.576;2023-05-28T13:47:05;21.80;99.20
54930;DHT22;40833;53.238;6.576;2023-05-28T13:49:31;21.80;99.40
54930;DHT22;40833;53.238;6.576;2023-05-28T13:51:56;21.80;99.40
54930;DHT22;40833;53.238;6.576;2023-05-28T13:54:22;21.90;99.60
54930;DHT22;40833;53.238;6.576;2023-05-28T13:56:48;22.00;99.50
54930;DHT22;40833;53.238;6.576;2023-05-28T13:59:13;22.00;99.50
54930;DHT22;40833;53.238;6.576;2023-05-28T14:01:39;22.00;99.70
54930;DHT22;40833;53.238;6.576;2023-05-28T14:04:05;22.10;99.30
54930;DHT22;40833;53.238;6.576;2023-05-28T14:06:30;22.10;99.20
54930;DHT22;40833;53.238;6.576;2023-05-28T14:08:57;22.10;99.50
54930;DHT22;40833;53.238;6.576;2023-05-28T14:11:23;22.20;99.60
54930;DHT22;40833;53.238;6.576;2023-05-28T14:13:49;22.20;99.50
54930;DHT22;40833;53.238;6.576;2023-05-28T14:16:14;22.20;99.50
54930;DHT22;40833;53.238;6.576;2023-05-28T14:18:40;22.10;99.40
54930;DHT22;40833;53.238;6.576;2023-05-28T14:21:06;22.20;99.90
54930;DHT22;40833;53.238;6.576;2023-05-28T14:23:32;22.30;99.90
54930;DHT22;40833;53.238;6.576;2023-05-28T14:25:59;22.20;99.90
54930;DHT22;40833;53.238;6.576;2023-05-28T14:28:24;22.10;99.90
54930;DHT22;40833;53.238;6.576;2023-05-28T14:30:52;22.10;99.90
54930;DHT22;40833;53.238;6.576;2023-05-28T14:33:18;22.00;99.90
54930;DHT22;40833;53.238;6.576;2023-05-28T14:35:44;21.80;99.90
54930;DHT22;40833;53.238;6.576;2023-05-28T14:38:10;21.90;99.90
54930;DHT22;40833;53.238;6.576;2023-05-28T14:40:36;22.00;99.90
54930;DHT22;40833;53.238;6.576;2023-05-28T14:43:01;22.00;99.90
54930;DHT22;40833;53.238;6.576;2023-05-28T14:45:27;21.80;99.90
54930;DHT22;40833;53.238;6.576;2023-05-28T14:47:53;21.80;99.90
54930;DHT22;40833;53.238;6.576;2023-05-28T14:50:18;21.80;99.90
54930;DHT22;40833;53.238;6.576;2023-05-28T14:52:45;22.10;99.90
54930;DHT22;40833;53.238;6.576;2023-05-28T14:55:11;22.30;99.90
54930;DHT22;40833;53.238;6.576;2023-05-28T14:57:37;22.30;99.90
54930;DHT22;40833;53.238;6.576;2023-05-28T15:00:05;22.30;99.90
54930;DHT22;40833;53.238;6.576;2023-05-28T15:02:36;22.10;99.90
54930;DHT22;40833;53.238;6.576;2023-05-28T15:05:02;22.00;99.90
54930;DHT22;40833;53.238;6.576;2023-05-28T15:07:29;22.00;99.90
54930;DHT22;40833;53.238;6.576;2023-05-28T15:09:55;22.20;99.90
54930;DHT22;40833;53.238;6.576;2023-05-28T15:12:21;22.40;99.90
54930;DHT22;40833;53.238;6.576;2023-05-28T15:14:47;22.70;99.90
54930;DHT22;40833;53.238;6.576;2023-05-28T15:17:12;22.90;99.90
54930;DHT22;40833;53.238;6.576;2023-05-28T15:19:38;23.00;99.90
54930;DHT22;40833;53.238;6.576;2023-05-28T15:22:04;23.20;99.90
54930;DHT22;40833;53.238;6.576;2023-05-28T15:24:30;23.50;99.90
54930;DHT22;40833;53.238;6.576;2023-05-28T15:27:00;23.60;99.90
54930;DHT22;40833;53.238;6.576;2023-05-28T15:29:28;23.60;99.90
54930;DHT22;40833;53.238;6.576;2023-05-28T15:31:55;23.50;99.90
54930;DHT22;40833;53.238;6.576;2023-05-28T15:34:21;23.60;99.90
54930;DHT22;40833;53.238;6.576;2023-05-28T15:36:47;23.70;99.90
54930;DHT22;40833;53.238;6.576;2023-05-28T15:39:13;23.50;99.90